createdAt,value
2018-07-23T00:00:54.594Z,13.20
2018-07-23T00:02:01.010Z,13.07
2018-07-23T00:03:07.467Z,12.35
2018-07-23T00:04:13.850Z,13.60
2018-07-23T00:05:20.181Z,12.20
2018-07-23T00:06:26.492Z,11.85
2018-07-23T00:07:32.772Z,12.90
2018-07-23T00:08:38.875Z,12.27
2018-07-23T00:09:45.179Z,11.85
2018-07-23T00:10:51.609Z,11.00
2018-07-23T00:11:57.736Z,11.90
2018-07-23T00:13:03.804Z,11.90
2018-07-23T00:14:10.241Z,11.40
2018-07-23T00:15:16.561Z,10.00
2018-07-23T00:16:22.888Z,11.55
2018-07-23T00:17:29.203Z,11.52
2018-07-23T00:18:35.498Z,11.57
2018-07-23T00:19:41.657Z,12.07
2018-07-23T00:20:48.109Z,11.25
2018-07-23T00:21:54.555Z,12.35
2018-07-23T00:23:01.075Z,11.82
2018-07-23T00:24:07.378Z,10.93
2018-07-23T00:25:14.165Z,11.40
2018-07-23T00:26:20.207Z,11.32
2018-07-23T00:27:26.690Z,12.07
2018-07-23T00:28:33.351Z,11.50
2018-07-23T00:29:39.643Z,11.85
2018-07-23T00:30:45.974Z,10.50
2018-07-23T00:31:52.335Z,11.25
2018-07-23T00:32:58.905Z,12.07
2018-07-23T00:34:05.081Z,9.80
2018-07-23T00:35:11.403Z,10.70
2018-07-23T00:36:17.844Z,11.52
2018-07-23T00:37:24.064Z,10.50
2018-07-23T00:38:30.434Z,11.57
2018-07-23T00:39:36.746Z,10.68
2018-07-23T00:40:44.345Z,10.63
2018-07-23T00:41:51.651Z,11.02
2018-07-23T00:42:57.940Z,10.82
2018-07-23T00:44:04.360Z,11.90
2018-07-23T00:45:10.587Z,12.35
2018-07-23T00:46:17.088Z,10.90
2018-07-23T00:47:23.524Z,10.50
2018-07-23T00:48:29.902Z,11.18
2018-07-23T00:49:35.808Z,11.65
2018-07-23T00:50:42.185Z,12.70
2018-07-23T00:51:48.568Z,11.70
2018-07-23T00:52:54.620Z,12.35
2018-07-23T00:54:01.068Z,11.12
2018-07-23T00:55:07.501Z,11.85
2018-07-23T00:56:14.601Z,11.43
2018-07-23T00:57:21.668Z,11.32
2018-07-23T00:58:27.980Z,10.98
2018-07-23T00:59:34.468Z,10.65
2018-07-23T01:00:40.822Z,12.18
2018-07-23T01:01:45.769Z,12.02
2018-07-23T01:02:52.160Z,10.77
2018-07-23T01:03:58.589Z,10.75
2018-07-23T01:05:04.889Z,10.30
2018-07-23T01:06:11.344Z,11.07
2018-07-23T01:07:17.536Z,9.63
2018-07-23T01:08:23.960Z,10.20
2018-07-23T01:09:30.480Z,11.02
2018-07-23T01:10:36.769Z,11.20
2018-07-23T01:11:43.106Z,11.27
2018-07-23T01:12:50.313Z,11.75
2018-07-23T01:13:56.613Z,10.80
2018-07-23T01:15:02.748Z,10.95
2018-07-23T01:16:09.072Z,11.00
2018-07-23T01:17:15.266Z,11.23
2018-07-23T01:18:22.056Z,11.50
2018-07-23T01:19:28.503Z,12.02
2018-07-23T01:20:34.905Z,10.95
2018-07-23T01:21:41.352Z,11.40
2018-07-23T01:22:47.657Z,11.77
2018-07-23T01:23:53.938Z,11.82
2018-07-23T01:25:00.283Z,10.93
2018-07-23T01:26:07.412Z,11.12
2018-07-23T01:27:13.737Z,10.30
2018-07-23T01:28:20.314Z,10.43
2018-07-23T01:29:26.727Z,13.10
2018-07-23T01:30:33.034Z,10.48
2018-07-23T01:31:39.358Z,11.98
2018-07-23T01:32:45.752Z,11.18
2018-07-23T01:33:52.087Z,11.20
2018-07-23T01:34:58.445Z,11.32
2018-07-23T01:36:09.870Z,10.20
2018-07-23T01:37:16.272Z,10.60
2018-07-23T01:38:22.646Z,10.57
2018-07-23T01:39:28.854Z,10.60
2018-07-23T01:40:35.207Z,10.90
2018-07-23T01:41:41.597Z,10.65
2018-07-23T01:42:47.846Z,11.50
2018-07-23T01:43:54.216Z,10.23
2018-07-23T01:45:00.524Z,10.68
2018-07-23T01:46:06.831Z,10.52
2018-07-23T01:47:12.643Z,12.00
2018-07-23T01:48:19.381Z,11.00
2018-07-23T01:49:25.780Z,10.93
2018-07-23T01:50:32.060Z,11.20
2018-07-23T01:51:38.485Z,11.05
2018-07-23T01:52:44.868Z,11.75
2018-07-23T01:53:51.219Z,10.30
2018-07-23T01:54:57.686Z,10.75
2018-07-23T01:56:04.230Z,10.90
2018-07-23T01:57:10.656Z,10.68
2018-07-23T01:58:17.130Z,10.90
2018-07-23T01:59:23.571Z,12.57
2018-07-23T02:00:30.010Z,11.65
2018-07-23T02:01:36.352Z,10.40
2018-07-23T02:02:42.590Z,10.93
2018-07-23T02:03:49.931Z,10.93
2018-07-23T02:04:57.899Z,10.20
2018-07-23T02:06:03.947Z,9.73
2018-07-23T02:07:10.385Z,10.48
2018-07-23T02:09:25.676Z,9.90
2018-07-23T02:10:32.044Z,10.77
2018-07-23T02:11:39.040Z,11.85
2018-07-23T02:12:45.506Z,10.95
2018-07-23T02:13:51.804Z,10.25
2018-07-23T02:14:58.263Z,11.45
2018-07-23T02:16:04.059Z,10.77
2018-07-23T02:17:10.297Z,11.07
2018-07-23T02:18:16.805Z,10.50
2018-07-23T02:19:24.320Z,11.68
2018-07-23T02:20:31.341Z,11.05
2018-07-23T02:21:37.316Z,12.05
2018-07-23T02:22:43.756Z,11.60
2018-07-23T02:23:50.044Z,11.98
2018-07-23T02:24:56.478Z,11.52
2018-07-23T02:26:02.774Z,11.55
2018-07-23T02:27:09.105Z,11.75
2018-07-23T02:28:15.543Z,12.40
2018-07-23T02:29:21.909Z,11.60
2018-07-23T02:30:28.040Z,11.98
2018-07-23T02:31:34.362Z,12.40
2018-07-23T02:32:40.770Z,11.20
2018-07-23T02:33:46.973Z,11.40
2018-07-23T02:34:52.941Z,12.18
2018-07-23T02:36:00.215Z,11.57
2018-07-23T02:37:06.627Z,13.15
2018-07-23T02:38:13.736Z,11.63
2018-07-23T02:39:20.157Z,12.02
2018-07-23T02:40:26.561Z,11.20
2018-07-23T02:41:32.887Z,11.82
2018-07-23T02:42:39.324Z,13.43
2018-07-23T02:43:45.702Z,14.05
2018-07-23T02:44:52.123Z,13.93
2018-07-23T02:45:58.554Z,12.65
2018-07-23T02:47:04.951Z,13.88
2018-07-23T02:48:14.469Z,13.10
2018-07-23T02:49:20.902Z,12.48
2018-07-23T02:50:27.327Z,11.25
2018-07-23T02:51:34.249Z,15.15
2018-07-23T02:52:40.603Z,14.85
2018-07-23T02:53:46.960Z,15.30
2018-07-23T02:54:53.316Z,13.85
2018-07-23T02:55:59.636Z,11.98
2018-07-23T02:57:06.002Z,13.50
2018-07-23T02:58:12.416Z,15.05
2018-07-23T02:59:18.774Z,14.95
2018-07-23T03:00:25.228Z,15.38
2018-07-23T03:01:31.609Z,16.05
2018-07-23T03:02:37.925Z,16.37
2018-07-23T03:03:44.891Z,16.05
2018-07-23T03:04:51.389Z,15.70
2018-07-23T03:05:57.798Z,16.67
2018-07-23T03:07:04.075Z,16.50
2018-07-23T03:08:10.455Z,16.87
2018-07-23T03:09:17.352Z,16.42
2018-07-23T03:10:23.769Z,16.98
2018-07-23T03:11:30.062Z,16.50
2018-07-23T03:12:36.395Z,16.00
2018-07-23T03:13:42.810Z,15.65
2018-07-23T03:14:49.093Z,16.33
2018-07-23T03:15:55.656Z,15.13
2018-07-23T03:17:02.121Z,15.55
2018-07-23T03:18:07.980Z,15.90
2018-07-23T03:19:14.515Z,17.00
2018-07-23T03:20:20.856Z,14.87
2018-07-23T03:21:27.176Z,16.00
2018-07-23T03:22:33.569Z,17.08
2018-07-23T03:23:40.037Z,16.17
2018-07-23T03:24:46.079Z,14.57
2018-07-23T03:25:52.137Z,14.48
2018-07-23T03:26:59.536Z,14.82
2018-07-23T03:28:06.389Z,13.93
2018-07-23T03:29:12.716Z,13.85
2018-07-23T03:30:19.024Z,15.80
2018-07-23T03:31:25.316Z,14.40
2018-07-23T03:32:31.442Z,16.20
2018-07-23T03:33:38.225Z,14.43
2018-07-23T03:34:44.662Z,14.77
2018-07-23T03:35:51.083Z,14.73
2018-07-23T03:36:57.388Z,15.65
2018-07-23T03:38:03.613Z,15.10
2018-07-23T03:39:09.930Z,14.15
2018-07-23T03:40:16.038Z,15.23
2018-07-23T03:41:22.284Z,14.85
2018-07-23T03:42:28.945Z,14.87
2018-07-23T03:43:36.012Z,13.70
2018-07-23T03:44:43.095Z,15.63
2018-07-23T03:45:49.497Z,15.48
2018-07-23T03:46:55.884Z,14.60
2018-07-23T03:48:02.411Z,15.80
2018-07-23T03:49:08.966Z,14.95
2018-07-23T03:50:15.285Z,13.85
2018-07-23T03:51:21.681Z,14.02
2018-07-23T03:52:28.109Z,14.68
2018-07-23T03:53:34.468Z,14.48
2018-07-23T03:54:40.835Z,13.77
2018-07-23T03:55:47.275Z,13.02
2018-07-23T03:56:53.320Z,15.75
2018-07-23T03:58:00.393Z,16.52
2018-07-23T03:59:06.211Z,14.80
2018-07-23T04:00:12.254Z,13.80
2018-07-23T04:01:18.748Z,14.75
2018-07-23T04:02:25.052Z,14.30
2018-07-23T04:03:31.966Z,12.65
2018-07-23T04:04:38.565Z,14.10
2018-07-23T04:05:44.517Z,12.40
2018-07-23T04:06:50.557Z,13.73
2018-07-23T04:07:56.888Z,13.88
2018-07-23T04:09:03.804Z,14.52
2018-07-23T04:10:10.353Z,13.73
2018-07-23T04:11:16.806Z,13.48
2018-07-23T04:12:23.393Z,13.48
2018-07-23T04:13:29.801Z,11.88
2018-07-23T04:14:36.129Z,15.13
2018-07-23T04:15:42.120Z,14.48
2018-07-23T04:16:48.426Z,13.75
2018-07-23T04:17:54.738Z,13.93
2018-07-23T04:19:01.434Z,14.40
2018-07-23T04:20:07.836Z,14.87
2018-07-23T04:21:14.279Z,13.15
2018-07-23T04:22:20.908Z,14.32
2018-07-23T04:23:27.229Z,13.20
2018-07-23T04:24:33.535Z,14.30
2018-07-23T04:25:40.755Z,13.70
2018-07-23T04:26:47.159Z,12.52
2018-07-23T04:27:53.600Z,12.45
2018-07-23T04:28:59.663Z,13.55
2018-07-23T04:30:05.726Z,14.23
2018-07-23T04:31:12.101Z,12.88
2018-07-23T04:32:18.624Z,13.62
2018-07-23T04:33:24.970Z,13.27
2018-07-23T04:34:32.119Z,12.93
2018-07-23T04:35:39.287Z,12.80
2018-07-23T04:36:46.755Z,12.37
2018-07-23T04:37:53.661Z,12.37
2018-07-23T04:38:59.781Z,14.48
2018-07-23T04:40:06.289Z,13.85
2018-07-23T04:41:12.615Z,12.63
2018-07-23T04:42:19.323Z,14.13
2018-07-23T04:43:25.753Z,14.50
2018-07-23T04:44:32.168Z,15.40
2018-07-23T04:45:38.444Z,13.52
2018-07-23T04:46:44.878Z,14.25
2018-07-23T04:47:51.284Z,12.23
2018-07-23T04:48:57.620Z,13.05
2018-07-23T04:50:04.119Z,14.75
2018-07-23T04:51:11.182Z,12.93
2018-07-23T04:52:17.572Z,13.57
2018-07-23T04:53:23.965Z,12.63
2018-07-23T04:54:30.592Z,11.65
2018-07-23T04:55:36.637Z,13.52
2018-07-23T04:56:43.218Z,13.85
2018-07-23T04:57:49.696Z,10.85
2018-07-23T04:58:56.886Z,12.75
2018-07-23T05:00:03.297Z,12.02
2018-07-23T05:01:09.781Z,11.05
2018-07-23T05:02:16.101Z,11.75
2018-07-23T05:03:22.557Z,11.18
2018-07-23T05:04:29.065Z,12.30
2018-07-23T05:05:36.280Z,12.15
2018-07-23T05:06:43.378Z,11.85
2018-07-23T05:07:50.436Z,12.23
2018-07-23T05:08:56.904Z,12.65
2018-07-23T05:10:02.934Z,11.60
2018-07-23T05:11:09.973Z,11.35
2018-07-23T05:12:17.544Z,11.85
2018-07-23T05:13:24.137Z,11.88
2018-07-23T05:14:30.576Z,12.07
2018-07-23T05:15:37.056Z,10.55
2018-07-23T05:16:43.389Z,12.05
2018-07-23T05:17:49.796Z,11.48
2018-07-23T05:18:56.265Z,12.02
2018-07-23T05:20:02.619Z,13.90
2018-07-23T05:21:09.722Z,13.70
2018-07-23T05:22:16.849Z,13.27
2018-07-23T05:23:23.213Z,13.60
2018-07-23T05:24:29.573Z,12.95
2018-07-23T05:25:36.021Z,13.98
2018-07-23T05:26:42.456Z,12.73
2018-07-23T05:27:48.879Z,14.07
2018-07-23T05:28:55.300Z,13.25
2018-07-23T05:30:01.699Z,13.52
2018-07-23T05:31:07.424Z,13.38
2018-07-23T05:32:13.562Z,13.60
2018-07-23T05:33:19.951Z,13.25
2018-07-23T05:34:26.240Z,12.48
2018-07-23T05:35:32.651Z,12.93
2018-07-23T05:36:38.988Z,13.80
2018-07-23T05:37:45.506Z,13.88
2018-07-23T05:38:51.892Z,12.55
2018-07-23T05:39:58.301Z,11.77
2018-07-23T05:41:04.600Z,13.95
2018-07-23T05:42:11.012Z,12.75
2018-07-23T05:43:17.381Z,13.02
2018-07-23T05:44:23.774Z,12.35
2018-07-23T05:45:30.075Z,12.73
2018-07-23T05:46:36.571Z,13.20
2018-07-23T05:47:42.977Z,14.02
2018-07-23T05:48:49.321Z,13.15
2018-07-23T05:49:55.618Z,11.55
2018-07-23T05:51:01.941Z,11.23
2018-07-23T05:52:08.657Z,12.80
2018-07-23T05:53:15.076Z,13.98
2018-07-23T05:54:21.503Z,12.60
2018-07-23T05:55:27.809Z,12.00
2018-07-23T05:56:34.912Z,12.70
2018-07-23T05:57:41.413Z,13.18
2018-07-23T05:58:48.075Z,12.65
2018-07-23T05:59:54.690Z,11.45
2018-07-23T06:01:01.103Z,11.35
2018-07-23T06:02:07.057Z,10.63
2018-07-23T06:03:13.503Z,12.23
2018-07-23T06:04:19.598Z,11.12
2018-07-23T06:05:26.040Z,11.23
2018-07-23T06:06:32.471Z,11.98
2018-07-23T06:07:38.757Z,11.38
2018-07-23T06:08:45.188Z,11.20
2018-07-23T06:09:51.140Z,10.88
2018-07-23T06:10:57.137Z,10.02
2018-07-23T06:12:03.817Z,12.35
2018-07-23T06:13:11.314Z,10.02
2018-07-23T06:14:18.392Z,9.77
2018-07-23T06:15:24.768Z,10.48
2018-07-23T06:16:31.185Z,10.35
2018-07-23T06:17:37.677Z,11.98
2018-07-23T06:18:44.119Z,10.90
2018-07-23T06:19:50.474Z,11.00
2018-07-23T06:20:56.516Z,10.63
2018-07-23T06:22:02.552Z,11.38
2018-07-23T06:23:08.608Z,9.85
2018-07-23T06:24:14.341Z,10.63
2018-07-23T06:25:20.789Z,10.52
2018-07-23T06:26:27.136Z,10.70
2018-07-23T06:27:33.505Z,9.95
2018-07-23T06:28:40.606Z,10.02
2018-07-23T06:29:47.628Z,10.85
2018-07-23T06:30:53.959Z,10.75
2018-07-23T06:32:00.328Z,10.20
2018-07-23T06:33:06.692Z,11.10
2018-07-23T06:34:13.017Z,9.65
2018-07-23T06:35:19.397Z,9.45
2018-07-23T06:36:25.760Z,9.10
2018-07-23T06:37:32.057Z,9.13
2018-07-23T06:38:38.635Z,8.02
2018-07-23T06:39:45.556Z,8.70
2018-07-23T06:40:51.976Z,9.00
2018-07-23T06:41:58.877Z,9.00
2018-07-23T06:43:04.958Z,8.90
2018-07-23T06:44:11.042Z,7.85
2018-07-23T06:45:17.659Z,7.50
2018-07-23T06:46:24.061Z,7.50
2018-07-23T06:47:30.364Z,7.70
2018-07-23T06:48:36.678Z,7.87
2018-07-23T06:49:43.116Z,7.62
2018-07-23T06:50:49.399Z,6.72
2018-07-23T06:51:55.735Z,6.87
2018-07-23T06:53:02.117Z,7.78
2018-07-23T06:54:08.668Z,8.13
2018-07-23T06:55:14.926Z,7.95
2018-07-23T06:56:21.271Z,8.02
2018-07-23T06:57:27.648Z,8.65
2018-07-23T06:58:34.280Z,9.45
2018-07-23T06:59:40.549Z,8.90
2018-07-23T07:00:46.859Z,7.68
2018-07-23T07:01:53.237Z,9.10
2018-07-23T07:02:59.535Z,8.40
2018-07-23T07:04:05.350Z,7.25
2018-07-23T07:05:11.934Z,6.45
2018-07-23T07:06:18.203Z,6.90
2018-07-23T07:07:24.789Z,6.65
2018-07-23T07:08:31.117Z,5.90
2018-07-23T07:09:37.468Z,7.20
2018-07-23T07:10:43.728Z,6.65
2018-07-23T07:11:49.807Z,7.25
2018-07-23T07:12:56.472Z,6.93
2018-07-23T07:14:03.050Z,6.40
2018-07-23T07:15:09.316Z,6.55
2018-07-23T07:16:15.597Z,6.80
2018-07-23T07:17:21.956Z,6.78
2018-07-23T07:18:28.344Z,7.00
2018-07-23T07:19:34.678Z,6.95
2018-07-23T07:20:41.213Z,7.60
2018-07-23T07:21:48.183Z,6.07
2018-07-23T07:22:54.495Z,8.30
2018-07-23T07:24:00.832Z,6.97
2018-07-23T07:25:06.813Z,5.82
2018-07-23T07:26:13.224Z,7.15
2018-07-23T07:27:19.578Z,7.28
2018-07-23T07:28:25.858Z,6.97
2018-07-23T07:29:32.328Z,6.68
2018-07-23T07:30:38.781Z,6.30
2018-07-23T07:31:45.167Z,6.12
2018-07-23T07:32:51.511Z,6.90
2018-07-23T07:33:57.867Z,7.00
2018-07-23T07:35:03.807Z,6.90
2018-07-23T07:36:10.594Z,6.82
2018-07-23T07:37:16.862Z,7.50
2018-07-23T07:38:23.264Z,6.87
2018-07-23T07:39:29.839Z,6.97
2018-07-23T07:40:36.092Z,7.87
2018-07-23T07:41:42.514Z,7.32
2018-07-23T07:42:49.307Z,7.37
2018-07-23T07:43:55.752Z,7.07
2018-07-23T07:45:02.674Z,6.28
2018-07-23T07:46:09.094Z,6.05
2018-07-23T07:47:15.536Z,6.72
2018-07-23T07:48:21.826Z,6.15
2018-07-23T07:49:28.161Z,5.57
2018-07-23T07:50:34.488Z,6.45
2018-07-23T07:51:40.552Z,7.03
2018-07-23T07:52:46.976Z,5.75
2018-07-23T07:53:53.589Z,5.85
2018-07-23T07:55:00.846Z,6.47
2018-07-23T07:56:06.864Z,6.20
2018-07-23T07:57:13.171Z,5.45
2018-07-23T07:58:19.594Z,6.15
2018-07-23T07:59:25.909Z,6.32
2018-07-23T08:00:32.217Z,7.12
2018-07-23T08:01:38.491Z,7.47
2018-07-23T08:02:44.805Z,7.28
2018-07-23T08:03:51.120Z,6.65
2018-07-23T08:04:57.591Z,5.97
2018-07-23T08:06:03.596Z,5.95
2018-07-23T08:07:09.659Z,6.70
2018-07-23T08:08:15.966Z,6.40
2018-07-23T08:09:22.374Z,7.68
2018-07-23T08:10:28.701Z,6.95
2018-07-23T08:11:34.992Z,6.60
2018-07-23T08:12:42.025Z,6.03
2018-07-23T08:13:48.259Z,6.55
2018-07-23T08:14:54.668Z,6.53
2018-07-23T08:16:01.138Z,6.65
2018-07-23T08:17:07.172Z,5.90
2018-07-23T08:18:13.528Z,5.82
2018-07-23T08:19:19.552Z,6.20
2018-07-23T08:20:26.089Z,6.85
2018-07-23T08:21:32.406Z,6.70
2018-07-23T08:22:38.399Z,5.70
2018-07-23T08:23:44.866Z,6.47
2018-07-23T08:24:51.169Z,7.40
2018-07-23T08:25:57.541Z,6.85
2018-07-23T08:27:03.553Z,6.22
2018-07-23T08:28:10.514Z,6.85
2018-07-23T08:29:17.587Z,6.90
2018-07-23T08:30:23.756Z,6.95
2018-07-23T08:31:30.068Z,6.82
2018-07-23T08:32:36.674Z,6.75
2018-07-23T08:33:42.973Z,6.22
2018-07-23T08:34:48.967Z,6.75
2018-07-23T08:35:55.002Z,6.80
2018-07-23T08:37:01.892Z,5.93
2018-07-23T08:38:08.327Z,6.30
2018-07-23T08:39:14.377Z,6.62
2018-07-23T08:40:20.776Z,6.93
2018-07-23T08:41:27.099Z,5.90
2018-07-23T08:42:32.681Z,6.75
2018-07-23T08:43:39.064Z,5.80
2018-07-23T08:44:45.732Z,6.05
2018-07-23T08:45:51.684Z,6.47
2018-07-23T08:46:58.169Z,6.80
2018-07-23T08:48:04.062Z,6.15
2018-07-23T08:49:10.318Z,5.70
2018-07-23T08:50:16.299Z,6.12
2018-07-23T08:51:22.787Z,6.22
2018-07-23T08:52:29.360Z,6.12
2018-07-23T08:53:36.311Z,6.60
2018-07-23T08:54:42.760Z,6.07
2018-07-23T08:55:49.037Z,6.10
2018-07-23T08:56:55.317Z,6.45
2018-07-23T08:58:01.760Z,6.35
2018-07-23T08:59:08.093Z,6.25
2018-07-23T09:00:14.485Z,6.30
2018-07-23T09:01:20.771Z,5.78
2018-07-23T09:02:26.853Z,6.15
2018-07-23T09:03:33.397Z,5.45
2018-07-23T09:04:39.961Z,6.22
2018-07-23T09:05:47.129Z,6.00
2018-07-23T09:06:53.573Z,4.95
2018-07-23T09:07:59.882Z,5.90
2018-07-23T09:09:05.606Z,5.45
2018-07-23T09:10:11.717Z,5.80
2018-07-23T09:11:18.092Z,5.07
2018-07-23T09:12:24.556Z,5.93
2018-07-23T09:13:30.844Z,5.80
2018-07-23T09:14:37.134Z,6.53
2018-07-23T09:15:43.473Z,5.60
2018-07-23T09:16:50.004Z,5.80
2018-07-23T09:17:56.379Z,5.30
2018-07-23T09:19:02.688Z,5.90
2018-07-23T09:20:10.533Z,6.60
2018-07-23T09:21:17.309Z,5.67
2018-07-23T09:22:23.575Z,4.97
2018-07-23T09:23:29.883Z,6.03
2018-07-23T09:24:36.209Z,5.40
2018-07-23T09:25:42.368Z,5.47
2018-07-23T09:26:48.736Z,5.18
2018-07-23T09:27:55.027Z,5.28
2018-07-23T09:29:01.387Z,5.45
2018-07-23T09:30:07.468Z,5.20
2018-07-23T09:31:13.592Z,5.80
2018-07-23T09:32:19.688Z,5.53
2018-07-23T09:33:25.781Z,5.20
2018-07-23T09:34:32.031Z,5.55
2018-07-23T09:35:38.344Z,5.30
2018-07-23T09:36:45.361Z,5.40
2018-07-23T09:37:51.633Z,5.55
2018-07-23T09:38:58.043Z,6.28
2018-07-23T09:40:03.882Z,4.72
2018-07-23T09:41:10.196Z,5.18
2018-07-23T09:42:16.105Z,5.80
2018-07-23T09:43:22.488Z,4.95
2018-07-23T09:44:28.795Z,4.80
2018-07-23T09:45:35.105Z,5.40
2018-07-23T09:46:41.366Z,4.53
2018-07-23T09:47:47.718Z,4.50
2018-07-23T09:48:54.064Z,5.30
2018-07-23T09:50:00.384Z,5.47
2018-07-23T09:51:06.328Z,4.78
2018-07-23T09:52:12.776Z,4.47
2018-07-23T09:53:18.796Z,4.63
2018-07-23T09:54:24.844Z,5.03
2018-07-23T09:55:31.196Z,4.87
2018-07-23T09:56:37.932Z,5.15
2018-07-23T09:57:44.328Z,5.10
2018-07-23T09:58:50.384Z,5.10
2018-07-23T09:59:56.772Z,5.55
2018-07-23T10:01:02.578Z,4.93
2018-07-23T10:02:09.008Z,5.68
2018-07-23T10:03:15.599Z,5.18
2018-07-23T10:04:22.116Z,5.25
2018-07-23T10:05:28.152Z,5.30
2018-07-23T10:06:34.451Z,5.22
2018-07-23T10:07:40.447Z,5.00
2018-07-23T10:08:46.790Z,5.10
2018-07-23T10:09:52.801Z,5.77
2018-07-23T10:10:58.470Z,4.97
2018-07-23T10:12:05.012Z,5.30
2018-07-23T10:13:12.067Z,5.70
2018-07-23T10:14:18.256Z,4.57
2018-07-23T10:15:24.106Z,4.70
2018-07-23T10:16:30.152Z,5.70
2018-07-23T10:17:36.157Z,4.87
2018-07-23T10:18:42.159Z,5.00
2018-07-23T10:19:48.424Z,5.18
2018-07-23T10:20:54.461Z,5.13
2018-07-23T10:22:00.481Z,4.80
2018-07-23T10:23:06.757Z,4.75
2018-07-23T10:24:12.885Z,5.20
2018-07-23T10:25:19.179Z,4.87
2018-07-23T10:26:25.224Z,5.10
2018-07-23T10:27:31.196Z,5.20
2018-07-23T10:28:37.214Z,5.47
2018-07-23T10:29:43.231Z,5.70
2018-07-23T10:30:49.280Z,4.93
2018-07-23T10:31:55.363Z,4.77
2018-07-23T10:33:01.425Z,5.03
2018-07-23T10:34:07.432Z,4.37
2018-07-23T10:35:13.245Z,4.83
2018-07-23T10:36:19.978Z,4.85
2018-07-23T10:37:25.977Z,4.27
2018-07-23T10:38:31.964Z,5.10
2018-07-23T10:39:38.067Z,4.60
2018-07-23T10:40:44.169Z,5.33
2018-07-23T10:41:50.208Z,5.40
2018-07-23T10:42:56.182Z,5.77
2018-07-23T10:44:02.196Z,5.20
2018-07-23T10:45:08.222Z,4.57
2018-07-23T10:46:14.297Z,5.33
2018-07-23T10:47:20.335Z,5.23
2018-07-23T10:48:27.602Z,4.83
2018-07-23T10:49:34.388Z,4.80
2018-07-23T10:50:40.497Z,4.80
2018-07-23T10:51:47.167Z,4.50
2018-07-23T10:52:53.914Z,6.67
2018-07-23T10:54:00.028Z,4.70
2018-07-23T10:55:06.030Z,5.37
2018-07-23T10:56:12.041Z,5.70
2018-07-23T10:57:18.069Z,5.27
2018-07-23T10:58:24.052Z,4.60
2018-07-23T10:59:30.094Z,6.07
2018-07-23T11:00:36.762Z,5.30
2018-07-23T11:01:42.908Z,5.10
2018-07-23T11:02:48.893Z,5.17
2018-07-23T11:03:54.912Z,4.60
2018-07-23T11:05:00.921Z,4.80
2018-07-23T11:06:06.912Z,5.40
2018-07-23T11:07:12.961Z,5.60
2018-07-23T11:08:19.041Z,5.13
2018-07-23T11:09:25.048Z,4.90
2018-07-23T11:10:31.018Z,4.80
2018-07-23T11:11:36.908Z,4.70
2018-07-23T11:12:43.719Z,4.70
2018-07-23T11:13:49.843Z,4.87
2018-07-23T11:14:55.543Z,5.20
2018-07-23T11:16:01.946Z,4.62
2018-07-23T11:17:08.001Z,5.43
2018-07-23T11:18:14.012Z,5.30
2018-07-23T11:19:20.203Z,3.87
2018-07-23T11:20:26.480Z,5.20
2018-07-23T11:21:32.514Z,5.37
2018-07-23T11:22:38.209Z,4.60
2018-07-23T11:23:44.328Z,4.63
2018-07-23T11:24:51.380Z,5.57
2018-07-23T11:25:59.360Z,5.17
2018-07-23T11:27:06.139Z,5.50
2018-07-23T11:28:12.233Z,4.87
2018-07-23T11:29:18.363Z,4.90
2018-07-23T11:30:24.255Z,4.37
2018-07-23T11:31:30.276Z,4.37
2018-07-23T11:32:36.382Z,4.30
2018-07-23T11:33:42.359Z,5.00
2018-07-23T11:34:48.480Z,4.33
2018-07-23T11:35:54.576Z,5.37
2018-07-23T11:37:00.618Z,4.87
2018-07-23T11:38:06.700Z,5.03
2018-07-23T11:39:12.681Z,4.70
2018-07-23T11:40:19.797Z,5.37
2018-07-23T11:41:26.098Z,4.57
2018-07-23T11:42:32.165Z,4.73
2018-07-23T11:43:38.223Z,5.00
2018-07-23T11:44:44.344Z,5.30
2018-07-23T11:45:50.353Z,5.17
2018-07-23T11:46:56.346Z,4.40
2018-07-23T11:48:02.590Z,5.00
2018-07-23T11:49:08.560Z,5.10
2018-07-23T11:50:15.361Z,5.00
2018-07-23T11:51:21.546Z,5.50
2018-07-23T11:52:27.642Z,5.17
2018-07-23T11:53:33.725Z,5.23
2018-07-23T11:54:39.931Z,4.60
2018-07-23T11:55:46.533Z,4.60
2018-07-23T11:56:52.667Z,4.53
2018-07-23T11:57:58.683Z,4.87
2018-07-23T11:59:04.697Z,4.63
2018-07-23T12:00:10.696Z,4.90
2018-07-23T12:01:17.912Z,4.43
2018-07-23T12:02:23.937Z,4.60
2018-07-23T12:03:29.917Z,4.93
2018-07-23T12:04:36.133Z,4.93
2018-07-23T12:05:42.337Z,4.93
2018-07-23T12:06:48.431Z,4.13
2018-07-23T12:07:54.472Z,4.10
2018-07-23T12:09:00.544Z,4.77
2018-07-23T12:10:06.316Z,4.40
2018-07-23T12:11:12.448Z,4.63
2018-07-23T12:12:18.496Z,4.03
2018-07-23T12:13:24.502Z,3.93
2018-07-23T12:14:30.463Z,4.53
2018-07-23T12:15:36.484Z,4.77
2018-07-23T12:16:43.065Z,4.57
2018-07-23T12:17:49.348Z,5.43
2018-07-23T12:18:55.343Z,5.20
2018-07-23T12:20:01.454Z,4.70
2018-07-23T12:21:07.371Z,5.10
2018-07-23T12:22:13.321Z,4.60
2018-07-23T12:23:19.367Z,4.80
2018-07-23T12:24:25.348Z,4.93
2018-07-23T12:25:31.364Z,4.33
2018-07-23T12:26:37.312Z,4.27
2018-07-23T12:27:43.438Z,4.43
2018-07-23T12:28:49.524Z,3.93
2018-07-23T12:29:55.029Z,4.60
2018-07-23T12:31:01.731Z,4.60
2018-07-23T12:32:07.956Z,4.10
2018-07-23T12:33:14.014Z,4.57
2018-07-23T12:34:20.000Z,4.47
2018-07-23T12:35:26.029Z,4.70
2018-07-23T12:36:32.002Z,5.23
2018-07-23T12:37:39.005Z,4.70
2018-07-23T12:38:45.015Z,4.70
2018-07-23T12:39:51.076Z,4.33
2018-07-23T12:40:57.255Z,4.43
2018-07-23T12:42:03.392Z,5.50
2018-07-23T12:43:09.389Z,4.27
2018-07-23T12:44:15.196Z,4.87
2018-07-23T12:45:21.135Z,4.80
2018-07-23T12:46:27.310Z,4.90
2018-07-23T12:47:33.389Z,4.40
2018-07-23T12:48:39.422Z,4.60
2018-07-23T12:49:45.510Z,4.60
2018-07-23T12:50:51.642Z,5.50
2018-07-23T12:51:57.624Z,4.90
2018-07-23T12:53:04.568Z,4.40
2018-07-23T12:54:10.896Z,4.87
2018-07-23T12:55:16.952Z,6.20
2018-07-23T12:56:22.970Z,4.93
2018-07-23T12:57:29.000Z,5.07
2018-07-23T12:58:35.121Z,5.60
2018-07-23T12:59:41.268Z,4.97
2018-07-23T13:00:47.704Z,4.73
2018-07-23T13:01:53.853Z,4.67
2018-07-23T13:02:59.398Z,5.13
2018-07-23T13:04:05.539Z,5.73
2018-07-23T13:05:11.517Z,5.50
2018-07-23T13:06:17.650Z,5.13
2018-07-23T13:07:23.661Z,4.90
2018-07-23T13:08:29.846Z,5.10
2018-07-23T13:09:35.837Z,4.90
2018-07-23T13:10:41.907Z,4.63
2018-07-23T13:11:47.959Z,5.33
2018-07-23T13:12:53.985Z,5.40
2018-07-23T13:14:01.240Z,5.33
2018-07-23T13:15:06.939Z,4.70
2018-07-23T13:16:13.073Z,5.30
2018-07-23T13:17:19.114Z,4.97
2018-07-23T13:18:24.896Z,5.13
2018-07-23T13:19:31.138Z,5.77
2018-07-23T13:20:37.134Z,5.43
2018-07-23T13:21:42.855Z,4.60
2018-07-23T13:22:48.920Z,4.80
2018-07-23T13:23:54.612Z,5.93
2018-07-23T13:25:00.736Z,5.67
2018-07-23T13:26:06.514Z,5.73
2018-07-23T13:27:12.235Z,5.53
2018-07-23T13:28:18.268Z,5.37
2018-07-23T13:29:24.596Z,5.50
2018-07-23T13:30:31.208Z,5.40
2018-07-23T13:31:37.301Z,4.47
2018-07-23T13:32:43.421Z,4.80
2018-07-23T13:33:49.625Z,5.10
2018-07-23T13:34:55.688Z,5.93
2018-07-23T13:36:01.646Z,5.07
2018-07-23T13:37:07.749Z,5.13
2018-07-23T13:38:13.997Z,5.10
2018-07-23T13:39:20.258Z,5.30
2018-07-23T13:40:26.263Z,5.03
2018-07-23T13:41:32.237Z,5.53
2018-07-23T13:42:38.344Z,5.30
2018-07-23T13:43:44.497Z,4.97
2018-07-23T13:44:50.495Z,4.27
2018-07-23T13:45:56.467Z,4.80
2018-07-23T13:47:02.473Z,5.23
2018-07-23T13:48:08.572Z,4.67
2018-07-23T13:49:14.614Z,4.50
2018-07-23T13:50:21.749Z,4.90
2018-07-23T13:51:27.937Z,5.60
2018-07-23T13:52:34.248Z,5.23
2018-07-23T13:53:40.003Z,4.70
2018-07-23T13:54:46.139Z,5.20
2018-07-23T13:55:51.787Z,4.40
2018-07-23T13:56:57.546Z,4.83
2018-07-23T13:58:04.234Z,4.90
2018-07-23T13:59:10.370Z,5.40
2018-07-23T14:00:16.404Z,5.30
2018-07-23T14:01:22.444Z,4.77
2018-07-23T14:02:28.776Z,4.43
2018-07-23T14:03:34.849Z,5.50
2018-07-23T14:04:40.908Z,4.67
2018-07-23T14:05:47.246Z,5.17
2018-07-23T14:06:53.486Z,4.87
2018-07-23T14:07:59.419Z,4.90
2018-07-23T14:09:04.806Z,4.90
2018-07-23T14:10:11.153Z,5.33
2018-07-23T14:11:17.236Z,5.00
2018-07-23T14:12:23.256Z,4.80
2018-07-23T14:13:29.250Z,5.13
2018-07-23T14:14:35.487Z,4.97
2018-07-23T14:15:41.219Z,5.10
2018-07-23T14:16:47.376Z,5.50
2018-07-23T14:17:53.508Z,5.80
2018-07-23T14:18:59.517Z,4.83
2018-07-23T14:20:05.229Z,4.47
2018-07-23T14:21:11.769Z,4.60
2018-07-23T14:22:17.618Z,4.90
2018-07-23T14:23:23.721Z,4.90
2018-07-23T14:24:29.743Z,4.50
2018-07-23T14:25:35.727Z,5.37
2018-07-23T14:26:42.381Z,4.33
2018-07-23T14:27:48.888Z,5.07
2018-07-23T14:28:54.892Z,4.40
2018-07-23T14:30:00.896Z,5.43
2018-07-23T14:31:07.012Z,5.47